createdAt,value
2016-06-10T00:00:36.755Z,0
2016-06-10T00:01:43.133Z,0
2016-06-10T00:02:40.089Z,0
2016-06-10T00:03:36.623Z,0
2016-06-10T00:04:39.595Z,0
2016-06-10T00:05:36.708Z,0
2016-06-10T00:06:42.538Z,0
2016-06-10T00:07:39.449Z,0
2016-06-10T00:08:36.374Z,0
2016-06-10T00:09:37.252Z,0
2016-06-10T00:10:45.520Z,0
2016-06-10T00:11:39.461Z,0
2016-06-10T00:12:39.417Z,0
2016-06-10T00:13:42.185Z,0
2016-06-10T00:14:36.126Z,0
2016-06-10T00:15:36.066Z,0
2016-06-10T00:16:36.007Z,0
2016-06-10T00:17:38.995Z,0
2016-06-10T00:18:44.951Z,0
2016-06-10T00:19:44.891Z,0
2016-06-10T00:20:38.816Z,0
2016-06-10T00:21:38.757Z,0
2016-06-10T00:22:38.729Z,0
2016-06-10T00:23:35.700Z,0
2016-06-10T00:24:38.704Z,0
2016-06-10T00:25:38.597Z,0
2016-06-10T00:26:41.554Z,0
2016-06-10T00:27:35.697Z,0
2016-06-10T00:28:38.466Z,0
2016-06-10T00:29:35.594Z,0
2016-06-10T00:30:35.347Z,0
2016-06-10T00:31:35.287Z,0
2016-06-10T00:32:35.665Z,0
2016-06-10T00:33:35.200Z,0
2016-06-10T00:34:35.235Z,0
2016-06-10T00:35:35.113Z,0
2016-06-10T00:36:35.069Z,0
2016-06-10T00:37:35.056Z,0
2016-06-10T00:38:35.184Z,0
2016-06-10T00:39:34.953Z,0
2016-06-10T00:40:40.925Z,0
2016-06-10T00:41:34.693Z,0
2016-06-10T00:42:40.806Z,0
2016-06-10T00:43:40.982Z,0
2016-06-10T00:44:40.718Z,0
2016-06-10T00:45:34.658Z,0
2016-06-10T00:46:35.006Z,0
2016-06-10T00:47:34.572Z,0
2016-06-10T00:48:38.059Z,0
2016-06-10T00:49:34.452Z,0
2016-06-10T00:50:43.440Z,0
2016-06-10T00:51:34.381Z,0
2016-06-10T00:52:37.524Z,0
2016-06-10T00:53:37.340Z,0
2016-06-10T00:54:34.280Z,0
2016-06-10T00:55:34.486Z,0
2016-06-10T00:56:34.146Z,0
2016-06-10T00:57:34.102Z,0
2016-06-10T00:58:40.089Z,0
2016-06-10T00:59:36.874Z,0
2016-06-10T01:00:40.159Z,0
2016-06-10T01:01:45.974Z,0
2016-06-10T01:02:36.711Z,0
2016-06-10T01:03:33.793Z,0
2016-06-10T01:04:33.952Z,0
2016-06-10T01:05:33.705Z,0
2016-06-10T01:06:33.880Z,0
2016-06-10T01:07:36.820Z,0
2016-06-10T01:08:36.792Z,0
2016-06-10T01:09:36.639Z,0
2016-06-10T01:10:34.190Z,0
2016-06-10T01:11:36.646Z,0
2016-06-10T01:12:36.430Z,0
2016-06-10T01:13:33.324Z,0
2016-06-10T01:14:33.295Z,0
2016-06-10T01:15:36.236Z,0
2016-06-10T01:16:33.645Z,0
2016-06-10T01:17:33.336Z,0
2016-06-10T01:18:33.089Z,0
2016-06-10T01:19:33.060Z,0
2016-06-10T01:20:32.986Z,0
2016-06-10T01:21:32.957Z,0
2016-06-10T01:22:32.757Z,0
2016-06-10T01:23:35.697Z,0
2016-06-10T01:24:36.264Z,0
2016-06-10T01:25:33.156Z,0
2016-06-10T01:26:35.801Z,0
2016-06-10T01:27:35.694Z,0
2016-06-10T01:28:35.635Z,0
2016-06-10T01:29:35.606Z,0
2016-06-10T01:30:35.532Z,0
2016-06-10T01:31:35.690Z,0
2016-06-10T01:32:35.428Z,0
2016-06-10T01:33:35.650Z,0
2016-06-10T01:34:38.200Z,0
2016-06-10T01:35:32.297Z,0
2016-06-10T01:36:32.332Z,0
2016-06-10T01:37:32.209Z,0
2016-06-10T01:38:35.103Z,0
2016-06-10T01:39:32.091Z,0
2016-06-10T01:40:34.907Z,0
2016-06-10T01:41:35.049Z,0
2016-06-10T01:42:31.959Z,0
2016-06-10T01:43:35.134Z,0
2016-06-10T01:44:35.122Z,0
2016-06-10T01:45:35.047Z,0
2016-06-10T01:46:31.612Z,0
2016-06-10T01:47:34.771Z,0
2016-06-10T01:48:37.712Z,0
2016-06-10T01:49:34.652Z,0
2016-06-10T01:50:31.577Z,0
2016-06-10T01:51:31.519Z,0
2016-06-10T01:52:34.475Z,0
2016-06-10T01:53:34.446Z,0
2016-06-10T01:54:35.653Z,0
2016-06-10T01:55:31.781Z,0
2016-06-10T01:56:34.705Z,0
2016-06-10T01:57:37.115Z,0
2016-06-10T01:58:31.399Z,0
2016-06-10T01:59:31.136Z,0
2016-06-10T02:00:31.108Z,0
2016-06-10T02:01:31.049Z,0
2016-06-10T02:02:31.020Z,0
2016-06-10T02:03:33.961Z,0
2016-06-10T02:04:33.917Z,0
2016-06-10T02:05:30.859Z,0
2016-06-10T02:06:30.814Z,0
2016-06-10T02:07:30.974Z,0
2016-06-10T02:08:30.571Z,0
2016-06-10T02:09:30.682Z,0
2016-06-10T02:10:30.624Z,0
2016-06-10T02:11:30.579Z,0
2016-06-10T02:12:30.536Z,0
2016-06-10T02:13:30.492Z,0
2016-06-10T02:14:33.464Z,0
2016-06-10T02:15:30.404Z,0
2016-06-10T02:16:33.376Z,0
2016-06-10T02:17:30.349Z,0
2016-06-10T02:18:30.491Z,0
2016-06-10T02:19:30.416Z,0
2016-06-10T02:20:33.200Z,0
2016-06-10T02:21:33.328Z,0
2016-06-10T02:22:33.067Z,0
2016-06-10T02:23:32.866Z,0
2016-06-10T02:24:32.963Z,0
2016-06-10T02:25:33.482Z,0
2016-06-10T02:26:42.094Z,0
2016-06-10T02:27:29.816Z,0
2016-06-10T02:28:32.788Z,0
2016-06-10T02:29:32.744Z,0
2016-06-10T02:30:29.701Z,0
2016-06-10T02:31:29.688Z,0
2016-06-10T02:32:29.800Z,0
2016-06-10T02:33:32.538Z,0
2016-06-10T02:34:29.510Z,0
2016-06-10T02:35:32.496Z,0
2016-06-10T02:36:32.265Z,0
2016-06-10T02:37:29.582Z,0
2016-06-10T02:38:29.373Z,0
2016-06-10T02:39:32.366Z,0
2016-06-10T02:40:29.501Z,0
2016-06-10T02:41:29.323Z,0
2016-06-10T02:42:29.323Z,0
2016-06-10T02:43:35.323Z,0
2016-06-10T02:44:29.246Z,0
2016-06-10T02:45:32.076Z,0
2016-06-10T02:46:32.187Z,4
2016-06-10T02:47:32.136Z,4
2016-06-10T02:48:29.129Z,0
2016-06-10T02:49:28.903Z,0
2016-06-10T02:50:29.004Z,4
2016-06-10T02:51:28.981Z,4
2016-06-10T02:52:29.330Z,4
2016-06-10T02:53:28.898Z,4
2016-06-10T02:54:28.872Z,4
2016-06-10T02:55:28.658Z,4
2016-06-10T02:56:28.725Z,8
2016-06-10T02:57:28.699Z,8
2016-06-10T02:58:34.671Z,8
2016-06-10T02:59:28.628Z,8
2016-06-10T03:00:28.788Z,12
2016-06-10T03:01:28.558Z,12
2016-06-10T03:02:31.484Z,12
2016-06-10T03:03:34.486Z,12
2016-06-10T03:04:28.364Z,12
2016-06-10T03:05:28.321Z,16
2016-06-10T03:06:28.276Z,20
2016-06-10T03:07:31.249Z,20
2016-06-10T03:08:31.189Z,24
2016-06-10T03:09:28.145Z,24
2016-06-10T03:10:31.898Z,28
2016-06-10T03:11:31.058Z,32
2016-06-10T03:12:28.201Z,36
2016-06-10T03:13:33.939Z,40
2016-06-10T03:14:28.130Z,40
2016-06-10T03:15:27.851Z,44
2016-06-10T03:16:27.823Z,48
2016-06-10T03:17:27.983Z,56
2016-06-10T03:18:30.704Z,56
2016-06-10T03:19:30.660Z,60
2016-06-10T03:20:27.616Z,64
2016-06-10T03:21:27.589Z,72
2016-06-10T03:22:27.545Z,76
2016-06-10T03:23:30.484Z,84
2016-06-10T03:24:27.488Z,88
2016-06-10T03:25:27.991Z,92
2016-06-10T03:26:27.541Z,100
2016-06-10T03:27:30.294Z,104
2016-06-10T03:28:27.266Z,108
2016-06-10T03:29:27.378Z,108
2016-06-10T03:30:27.132Z,116
2016-06-10T03:31:27.322Z,120
2016-06-10T03:32:29.887Z,124
2016-06-10T03:33:33.032Z,128
2016-06-10T03:34:26.940Z,132
2016-06-10T03:35:29.912Z,136
2016-06-10T03:36:26.838Z,140
2016-06-10T03:37:29.810Z,148
2016-06-10T03:38:29.766Z,156
2016-06-10T03:39:26.706Z,164
2016-06-10T03:40:27.772Z,168
2016-06-10T03:41:29.493Z,176
2016-06-10T03:42:26.982Z,184
2016-06-10T03:43:26.953Z,192
2016-06-10T03:44:26.457Z,200
2016-06-10T03:45:32.460Z,212
2016-06-10T03:46:29.383Z,224
2016-06-10T03:47:26.325Z,232
2016-06-10T03:48:26.687Z,244
2016-06-10T03:49:29.222Z,256
2016-06-10T03:50:29.193Z,260
2016-06-10T03:51:32.384Z,264
2016-06-10T03:52:29.106Z,268
2016-06-10T03:53:29.046Z,280
2016-06-10T03:54:29.018Z,284
2016-06-10T03:55:29.771Z,284
2016-06-10T03:56:32.509Z,280
2016-06-10T03:57:29.168Z,276
2016-06-10T03:58:31.828Z,280
2016-06-10T03:59:25.752Z,280
2016-06-10T04:00:31.943Z,280
2016-06-10T04:01:25.680Z,288
2016-06-10T04:02:28.682Z,288
2016-06-10T04:03:31.608Z,300
2016-06-10T04:04:25.518Z,304
2016-06-10T04:05:25.489Z,308
2016-06-10T04:06:31.430Z,312
2016-06-10T04:07:28.386Z,312
2016-06-10T04:08:31.358Z,320
2016-06-10T04:09:25.314Z,324
2016-06-10T04:10:29.098Z,328
2016-06-10T04:11:25.195Z,332
2016-06-10T04:12:28.183Z,336
2016-06-10T04:13:31.217Z,344
2016-06-10T04:14:31.266Z,348
2016-06-10T04:15:31.020Z,348
2016-06-10T04:16:24.944Z,356
2016-06-10T04:17:27.933Z,360
2016-06-10T04:18:27.873Z,368
2016-06-10T04:19:27.829Z,380
2016-06-10T04:20:27.785Z,388
2016-06-10T04:21:33.758Z,392
2016-06-10T04:22:24.854Z,396
2016-06-10T04:23:24.608Z,396
2016-06-10T04:24:24.563Z,396
2016-06-10T04:25:24.364Z,396
2016-06-10T04:26:31.132Z,396
2016-06-10T04:27:27.448Z,404
2016-06-10T04:28:27.388Z,408
2016-06-10T04:29:24.345Z,416
2016-06-10T04:30:24.285Z,416
2016-06-10T04:31:24.272Z,420
2016-06-10T04:32:24.197Z,428
2016-06-10T04:33:24.153Z,436
2016-06-10T04:34:24.094Z,440
2016-06-10T04:35:24.050Z,448
2016-06-10T04:36:23.991Z,452
2016-06-10T04:37:23.962Z,464
2016-06-10T04:38:23.934Z,492
2016-06-10T04:39:26.859Z,500
2016-06-10T04:40:27.159Z,516
2016-06-10T04:41:32.741Z,540
2016-06-10T04:42:26.743Z,540
2016-06-10T04:43:26.669Z,564
2016-06-10T04:44:30.047Z,600
2016-06-10T04:45:32.456Z,652
2016-06-10T04:46:26.553Z,716
2016-06-10T04:47:23.478Z,808
2016-06-10T04:48:29.262Z,952
2016-06-10T04:49:23.249Z,1036
2016-06-10T04:50:26.549Z,1084
2016-06-10T04:51:29.349Z,1104
2016-06-10T04:52:26.806Z,1156
2016-06-10T04:53:26.261Z,1180
2016-06-10T04:54:29.359Z,1208
2016-06-10T04:55:23.095Z,1228
2016-06-10T04:56:26.209Z,1256
2016-06-10T04:57:25.993Z,1296
2016-06-10T04:58:23.012Z,1332
2016-06-10T04:59:28.952Z,1356
2016-06-10T05:00:28.877Z,1380
2016-06-10T05:01:25.849Z,1396
2016-06-10T05:02:25.790Z,1408
2016-06-10T05:03:22.714Z,1424
2016-06-10T05:04:22.670Z,1436
2016-06-10T05:05:27.080Z,1428
2016-06-10T05:06:22.584Z,1420
2016-06-10T05:07:22.523Z,1408
2016-06-10T05:08:25.526Z,1384
2016-06-10T05:09:22.436Z,1372
2016-06-10T05:10:22.611Z,1380
2016-06-10T05:11:22.410Z,1400
2016-06-10T05:12:25.398Z,1440
2016-06-10T05:13:22.245Z,1464
2016-06-10T05:14:22.186Z,1508
2016-06-10T05:15:22.345Z,1520
2016-06-10T05:16:22.114Z,1556
2016-06-10T05:17:24.945Z,1592
2016-06-10T05:18:22.026Z,1604
2016-06-10T05:19:21.967Z,1624
2016-06-10T05:20:21.908Z,1656
2016-06-10T05:21:21.894Z,1676
2016-06-10T05:22:21.664Z,1680
2016-06-10T05:23:21.761Z,1692
2016-06-10T05:24:24.935Z,1720
2016-06-10T05:25:21.688Z,1744
2016-06-10T05:26:25.051Z,1768
2016-06-10T05:27:21.788Z,1788
2016-06-10T05:28:21.538Z,1820
2016-06-10T05:29:21.494Z,1860
2016-06-10T05:30:27.297Z,1880
2016-06-10T05:31:24.394Z,1904
2016-06-10T05:32:27.772Z,1908
2016-06-10T05:33:30.306Z,1904
2016-06-10T05:34:21.447Z,1908
2016-06-10T05:35:24.391Z,1904
2016-06-10T05:36:24.363Z,1924
2016-06-10T05:37:21.129Z,1932
2016-06-10T05:38:21.069Z,1968
2016-06-10T05:39:24.013Z,2012
2016-06-10T05:40:23.969Z,2036
2016-06-10T05:41:20.922Z,2052
2016-06-10T05:42:20.956Z,2052
2016-06-10T05:43:20.834Z,2052
2016-06-10T05:44:20.807Z,2060
2016-06-10T05:45:23.765Z,2076
2016-06-10T05:46:26.909Z,2080
2016-06-10T05:47:20.643Z,2092
2016-06-10T05:48:20.584Z,2096
2016-06-10T05:49:20.572Z,2088
2016-06-10T05:50:20.528Z,2076
2016-06-10T05:51:23.471Z,2060
2016-06-10T05:52:23.459Z,2088
2016-06-10T05:53:23.384Z,2064
2016-06-10T05:54:23.371Z,2008
2016-06-10T05:55:26.562Z,1956
2016-06-10T05:56:21.546Z,1916
2016-06-10T05:57:23.161Z,1876
2016-06-10T05:58:20.115Z,1908
2016-06-10T05:59:20.134Z,1904
2016-06-10T06:00:20.325Z,1912
2016-06-10T06:01:20.170Z,1956
2016-06-10T06:02:19.939Z,1960
2016-06-10T06:03:19.880Z,1976
2016-06-10T06:04:19.868Z,1992
2016-06-10T06:05:19.808Z,2016
2016-06-10T06:06:22.951Z,2072
2016-06-10T06:07:19.705Z,2092
2016-06-10T06:08:22.630Z,2140
2016-06-10T06:09:19.586Z,2180
2016-06-10T06:10:31.592Z,2212
2016-06-10T06:11:22.545Z,2232
2016-06-10T06:12:19.658Z,2284
2016-06-10T06:13:22.411Z,2336
2016-06-10T06:14:19.696Z,2428
2016-06-10T06:15:19.338Z,2560
2016-06-10T06:16:19.280Z,2600
2016-06-10T06:17:22.658Z,2548
2016-06-10T06:18:22.192Z,2472
2016-06-10T06:19:22.836Z,2468
2016-06-10T06:20:22.495Z,2488
2016-06-10T06:21:18.889Z,2528
2016-06-10T06:22:18.985Z,2644
2016-06-10T06:23:19.160Z,2944
2016-06-10T06:24:21.898Z,3144
2016-06-10T06:25:18.869Z,3240
2016-06-10T06:26:22.747Z,3320
2016-06-10T06:27:18.954Z,3376
2016-06-10T06:28:18.754Z,3396
2016-06-10T06:29:21.882Z,3400
2016-06-10T06:30:24.841Z,3412
2016-06-10T06:31:24.579Z,3440
2016-06-10T06:32:18.516Z,3468
2016-06-10T06:33:21.519Z,3484
2016-06-10T06:34:18.429Z,3516
2016-06-10T06:35:21.229Z,3528
2016-06-10T06:36:18.544Z,3536
2016-06-10T06:37:21.531Z,3544
2016-06-10T06:38:21.097Z,3584
2016-06-10T06:39:21.412Z,3592
2016-06-10T06:40:18.150Z,3720
2016-06-10T06:41:20.966Z,3664
2016-06-10T06:42:21.062Z,3620
2016-06-10T06:43:21.018Z,3600
2016-06-10T06:44:17.991Z,3528
2016-06-10T06:45:18.728Z,3444
2016-06-10T06:46:17.919Z,3376
2016-06-10T06:47:18.109Z,3304
2016-06-10T06:48:17.784Z,3232
2016-06-10T06:49:18.256Z,3200
2016-06-10T06:50:20.775Z,3188
2016-06-10T06:51:17.621Z,3196
2016-06-10T06:52:17.641Z,3188
2016-06-10T06:53:17.565Z,3148
2016-06-10T06:54:17.505Z,3084
2016-06-10T06:55:17.461Z,3004
2016-06-10T06:56:18.730Z,2908
2016-06-10T06:57:17.203Z,2856
2016-06-10T06:58:17.300Z,2840
2016-06-10T06:59:19.162Z,2832
2016-06-10T07:00:21.930Z,2844
2016-06-10T07:01:20.371Z,2836
2016-06-10T07:02:20.280Z,2844
2016-06-10T07:03:17.127Z,2912
2016-06-10T07:04:17.036Z,2972
2016-06-10T07:05:16.822Z,2944
2016-06-10T07:06:16.949Z,3000
2016-06-10T07:07:20.108Z,3088
2016-06-10T07:08:17.174Z,3084
2016-06-10T07:09:17.521Z,3128
2016-06-10T07:10:20.212Z,3140
2016-06-10T07:11:23.089Z,3160
2016-06-10T07:12:22.561Z,3172
2016-06-10T07:13:19.486Z,3208
2016-06-10T07:14:19.489Z,3204
2016-06-10T07:15:19.586Z,3228
2016-06-10T07:16:22.776Z,3248
2016-06-10T07:17:22.842Z,3236
2016-06-10T07:18:19.407Z,3212
2016-06-10T07:19:22.410Z,3332
2016-06-10T07:20:16.538Z,3332
2016-06-10T07:21:19.246Z,3340
2016-06-10T07:22:16.544Z,3276
2016-06-10T07:23:19.172Z,3164
2016-06-10T07:24:20.332Z,3000
2016-06-10T07:25:16.773Z,2972
2016-06-10T07:26:16.026Z,2896
2016-06-10T07:27:15.967Z,2820
2016-06-10T07:28:16.298Z,2732
2016-06-10T07:29:15.895Z,2788
2016-06-10T07:30:15.851Z,2860
2016-06-10T07:31:21.839Z,2940
2016-06-10T07:32:15.747Z,2944
2016-06-10T07:33:18.703Z,2948
2016-06-10T07:34:19.270Z,2940
2016-06-10T07:35:15.866Z,2788
2016-06-10T07:36:15.759Z,2652
2016-06-10T07:37:15.715Z,2528
2016-06-10T07:38:15.673Z,2432
2016-06-10T07:39:15.269Z,2316
2016-06-10T07:40:15.382Z,2272
2016-06-10T07:41:15.525Z,2372
2016-06-10T07:42:15.122Z,2372
2016-06-10T07:43:15.297Z,2424
2016-06-10T07:44:15.207Z,2660
2016-06-10T07:45:15.272Z,2496
2016-06-10T07:46:14.962Z,2500
2016-06-10T07:47:15.059Z,2540
2016-06-10T07:48:24.171Z,2508
2016-06-10T07:49:15.660Z,2496
2016-06-10T07:50:15.177Z,2428
2016-06-10T07:51:14.963Z,2252
2016-06-10T07:52:17.918Z,2168
2016-06-10T07:53:15.780Z,2168
2016-06-10T07:54:14.768Z,2200
2016-06-10T07:55:14.693Z,2232
2016-06-10T07:56:24.712Z,2276
2016-06-10T07:57:14.824Z,2280
2016-06-10T07:58:14.735Z,2112
2016-06-10T07:59:17.690Z,2060
2016-06-10T08:00:14.583Z,1996
2016-06-10T08:01:17.431Z,2000
2016-06-10T08:02:14.356Z,2040
2016-06-10T08:03:14.295Z,2052
2016-06-10T08:04:14.315Z,2000
2016-06-10T08:05:20.240Z,2112
2016-06-10T08:06:20.680Z,1852
2016-06-10T08:07:17.137Z,1600
2016-06-10T08:08:23.327Z,1460
2016-06-10T08:09:16.971Z,1460
2016-06-10T08:10:14.583Z,1432
2016-06-10T08:11:20.039Z,1500
2016-06-10T08:12:14.089Z,1560
2016-06-10T08:13:16.890Z,1536
2016-06-10T08:14:13.830Z,1864
2016-06-10T08:15:14.926Z,1900
2016-06-10T08:16:16.602Z,1880
2016-06-10T08:17:13.871Z,2112
2016-06-10T08:18:13.607Z,2020
2016-06-10T08:19:16.595Z,2116
2016-06-10T08:20:16.567Z,2108
2016-06-10T08:21:13.570Z,2124
2016-06-10T08:22:13.448Z,2124
2016-06-10T08:23:16.436Z,2104
2016-06-10T08:24:17.157Z,2120
2016-06-10T08:25:14.301Z,2120
2016-06-10T08:26:19.351Z,2092
2016-06-10T08:27:13.244Z,2080
2016-06-10T08:28:13.607Z,2056
2016-06-10T08:29:13.125Z,2092
2016-06-10T08:30:13.128Z,2080
2016-06-10T08:31:13.006Z,2096
2016-06-10T08:32:14.042Z,2084
2016-06-10T08:33:12.934Z,2104
2016-06-10T08:34:12.750Z,2124
2016-06-10T08:35:12.815Z,2140
2016-06-10T08:36:15.851Z,2140
2016-06-10T08:37:12.604Z,2140
2016-06-10T08:38:12.763Z,2072
2016-06-10T08:39:12.656Z,2068
2016-06-10T08:40:12.659Z,2072
2016-06-10T08:41:18.787Z,1996
2016-06-10T08:42:13.073Z,2140
2016-06-10T08:43:12.481Z,2128
2016-06-10T08:44:12.625Z,2156
2016-06-10T08:45:12.612Z,2160
2016-06-10T08:46:12.365Z,2192
2016-06-10T08:47:15.353Z,2200
2016-06-10T08:48:12.247Z,2200
2016-06-10T08:49:12.437Z,2200
2016-06-10T08:50:12.347Z,2196
2016-06-10T08:51:15.162Z,2196
2016-06-10T08:52:12.275Z,2200
2016-06-10T08:53:12.106Z,2200
2016-06-10T08:54:14.999Z,2240
2016-06-10T08:55:12.066Z,2228
2016-06-10T08:56:12.163Z,2244
2016-06-10T08:57:11.883Z,2216
2016-06-10T08:58:15.106Z,2252
2016-06-10T08:59:14.781Z,2196
2016-06-10T09:00:11.737Z,2288
2016-06-10T09:01:11.646Z,2272
2016-06-10T09:02:11.634Z,2228
2016-06-10T09:03:11.824Z,2272
2016-06-10T09:04:11.733Z,2296
2016-06-10T09:05:11.799Z,2216
2016-06-10T09:06:11.459Z,2180
2016-06-10T09:07:11.415Z,2172
2016-06-10T09:08:14.355Z,2108
2016-06-10T09:09:11.514Z,2076
2016-06-10T09:10:11.298Z,2088
2016-06-10T09:11:11.254Z,2120
2016-06-10T09:12:14.789Z,2216
2016-06-10T09:13:11.151Z,2200
2016-06-10T09:14:11.343Z,2128
2016-06-10T09:15:10.861Z,2188
2016-06-10T09:16:10.832Z,2104
2016-06-10T09:17:10.930Z,2160
2016-06-10T09:18:13.901Z,2188
2016-06-10T09:19:10.842Z,2120
2016-06-10T09:20:10.673Z,2196
2016-06-10T09:21:10.785Z,2148
2016-06-10T09:22:10.710Z,2152
2016-06-10T09:23:10.698Z,2304
2016-06-10T09:24:10.655Z,2224
2016-06-10T09:25:19.595Z,2236
2016-06-10T09:26:10.520Z,2312
2016-06-10T09:27:11.164Z,2348
2016-06-10T09:28:14.636Z,2332
2016-06-10T09:29:13.419Z,2308
2016-06-10T09:30:16.907Z,2152
2016-06-10T09:31:10.426Z,2280
2016-06-10T09:32:16.273Z,2208
2016-06-10T09:33:19.230Z,2172
2016-06-10T09:34:10.154Z,2164
2016-06-10T09:35:10.188Z,2212
2016-06-10T09:36:13.269Z,2164
2016-06-10T09:37:10.038Z,2144
2016-06-10T09:38:13.212Z,2240
2016-06-10T09:39:09.934Z,2232
2016-06-10T09:40:12.907Z,2232
2016-06-10T09:41:22.082Z,2228
2016-06-10T09:42:14.444Z,2120
2016-06-10T09:43:15.916Z,2196
2016-06-10T09:44:09.763Z,2152
2016-06-10T09:45:09.516Z,2212
2016-06-10T09:46:15.706Z,2260
2016-06-10T09:47:09.584Z,2260
2016-06-10T09:48:15.743Z,2244
2016-06-10T09:49:09.482Z,2232
2016-06-10T09:50:09.516Z,2224
2016-06-10T09:51:12.424Z,2216
2016-06-10T09:52:09.288Z,2176
2016-06-10T09:53:09.697Z,2208
2016-06-10T09:54:09.528Z,2212
2016-06-10T09:55:12.437Z,2220
2016-06-10T09:56:12.253Z,2244
2016-06-10T09:57:12.068Z,2252
2016-06-10T09:58:09.806Z,2308
2016-06-10T09:59:09.277Z,2312
2016-06-10T10:00:09.015Z,2328
2016-06-10T10:01:09.049Z,2348
2016-06-10T10:02:08.927Z,2360
2016-06-10T10:03:08.883Z,2384
2016-06-10T10:04:08.793Z,2384
2016-06-10T10:05:08.812Z,2368
2016-06-10T10:06:08.737Z,2408
2016-06-10T10:07:09.084Z,2380
2016-06-10T10:08:14.696Z,2384
2016-06-10T10:09:08.652Z,2368
2016-06-10T10:10:08.561Z,2392
2016-06-10T10:11:08.705Z,2384
2016-06-10T10:12:09.114Z,2420
2016-06-10T10:13:08.664Z,2388
2016-06-10T10:14:32.433Z,2444
2016-06-10T10:15:11.326Z,2412
2016-06-10T10:16:11.346Z,2464
2016-06-10T10:17:11.629Z,2560
2016-06-10T10:18:08.273Z,2636
2016-06-10T10:19:11.370Z,2740
2016-06-10T10:20:13.967Z,2820
2016-06-10T10:21:07.970Z,2832
2016-06-10T10:22:08.222Z,2964
2016-06-10T10:23:19.930Z,3004
2016-06-10T10:24:20.183Z,3092
2016-06-10T10:25:10.717Z,3132
2016-06-10T10:26:10.548Z,3108
2016-06-10T10:27:08.348Z,3100
2016-06-10T10:28:09.054Z,3068
2016-06-10T10:29:10.916Z,3276
2016-06-10T10:30:10.747Z,3312
2016-06-10T10:31:07.625Z,3232
2016-06-10T10:32:07.753Z,3252
2016-06-10T10:33:07.506Z,3132
2016-06-10T10:34:10.495Z,2920
2016-06-10T10:35:07.435Z,2972
2016-06-10T10:36:10.813Z,2912
2016-06-10T10:37:07.379Z,2736
2016-06-10T10:38:13.288Z,2748
2016-06-10T10:39:07.150Z,2748
2016-06-10T10:40:10.263Z,3060
2016-06-10T10:41:07.392Z,3184
2016-06-10T10:42:10.239Z,3304
2016-06-10T10:43:08.242Z,3304
2016-06-10T10:44:07.040Z,3364
2016-06-10T10:45:07.060Z,3440
2016-06-10T10:46:06.954Z,3512
2016-06-10T10:47:07.128Z,3356
2016-06-10T10:48:06.865Z,3160
2016-06-10T10:49:06.743Z,3048
2016-06-10T10:50:07.309Z,2988
2016-06-10T10:51:12.797Z,2968
2016-06-10T10:52:06.503Z,2860
2016-06-10T10:53:09.631Z,2788
2016-06-10T10:54:06.571Z,2896
2016-06-10T10:55:07.293Z,2984
2016-06-10T10:56:12.375Z,2968
2016-06-10T10:57:16.285Z,2944
2016-06-10T10:58:09.491Z,3140
2016-06-10T10:59:09.400Z,3148
2016-06-10T11:00:06.230Z,3108
2016-06-10T11:01:09.499Z,3048
2016-06-10T11:02:06.392Z,3012
2016-06-10T11:03:11.584Z,2944
2016-06-10T11:04:09.196Z,2912
2016-06-10T11:05:06.105Z,2912
2016-06-10T11:06:06.062Z,2892
2016-06-10T11:07:06.236Z,2860
2016-06-10T11:08:05.974Z,2888
2016-06-10T11:09:09.305Z,2912
2016-06-10T11:10:05.949Z,2940
2016-06-10T11:11:06.078Z,2964
2016-06-10T11:12:08.564Z,3020
2016-06-10T11:13:08.630Z,3084
2016-06-10T11:14:05.742Z,3148
2016-06-10T11:15:05.682Z,3200
2016-06-10T11:16:05.671Z,3192
2016-06-10T11:17:05.627Z,3104
2016-06-10T11:18:08.755Z,3028
2016-06-10T11:19:05.555Z,2944
2016-06-10T11:20:05.464Z,2844
2016-06-10T11:21:05.515Z,2644
2016-06-10T11:22:05.674Z,2536
2016-06-10T11:23:08.317Z,2524
2016-06-10T11:24:05.789Z,2504
2016-06-10T11:25:05.276Z,2524
2016-06-10T11:26:05.405Z,2548
2016-06-10T11:27:05.548Z,2584
2016-06-10T11:28:05.755Z,2596
2016-06-10T11:29:05.195Z,2612
2016-06-10T11:30:05.025Z,2700
2016-06-10T11:31:05.248Z,2744
2016-06-10T11:32:05.142Z,2824
2016-06-10T11:33:08.301Z,2884
2016-06-10T11:34:04.851Z,2908
2016-06-10T11:35:04.822Z,2936
2016-06-10T11:36:07.872Z,2952
2016-06-10T11:37:04.719Z,2960
2016-06-10T11:38:04.706Z,2968
2016-06-10T11:39:04.617Z,2984
2016-06-10T11:40:04.557Z,2988
2016-06-10T11:41:04.512Z,3016
2016-06-10T11:42:05.343Z,3108
2016-06-10T11:43:07.738Z,3156
2016-06-10T11:44:04.490Z,3036
2016-06-10T11:45:04.907Z,2948
2016-06-10T11:46:04.403Z,2912
2016-06-10T11:47:04.383Z,2844
2016-06-10T11:48:04.472Z,2824
2016-06-10T11:49:07.566Z,2804
2016-06-10T11:50:04.444Z,2772
2016-06-10T11:51:04.555Z,2696
2016-06-10T11:52:04.291Z,2712
2016-06-10T11:53:04.261Z,2692
2016-06-10T11:54:04.243Z,2688
2016-06-10T11:55:04.376Z,2684
2016-06-10T11:56:07.150Z,2624
2016-06-10T11:57:04.299Z,2632
2016-06-10T11:58:07.807Z,2620
2016-06-10T11:59:04.299Z,2608
2016-06-10T12:00:07.022Z,2656
2016-06-10T12:01:03.948Z,2692
2016-06-10T12:02:04.314Z,2724
2016-06-10T12:03:04.100Z,2764
2016-06-10T12:04:04.026Z,2796
2016-06-10T12:05:06.779Z,2796
2016-06-10T12:06:03.720Z,2792
2016-06-10T12:07:03.786Z,2820
2016-06-10T12:08:06.759Z,2840
2016-06-10T12:09:06.668Z,2852
2016-06-10T12:10:03.608Z,2860
2016-06-10T12:11:06.909Z,2856
2016-06-10T12:12:06.491Z,2852
2016-06-10T12:13:03.651Z,2632
2016-06-10T12:14:03.608Z,2808
2016-06-10T12:15:03.375Z,2964
2016-06-10T12:16:04.129Z,2908
2016-06-10T12:17:03.522Z,2708
2016-06-10T12:18:03.245Z,2972
2016-06-10T12:19:03.201Z,3348
2016-06-10T12:20:03.204Z,3388
2016-06-10T12:21:03.098Z,3440
2016-06-10T12:22:03.210Z,3396
2016-06-10T12:23:03.057Z,3468
2016-06-10T12:24:03.092Z,3464
2016-06-10T12:25:02.939Z,3368
2016-06-10T12:26:02.956Z,3248
2016-06-10T12:27:02.897Z,3164
2016-06-10T12:28:03.010Z,3164
2016-06-10T12:29:05.575Z,3176
2016-06-10T12:30:02.735Z,3144
2016-06-10T12:31:05.738Z,3124
2016-06-10T12:32:02.771Z,3072
2016-06-10T12:33:02.305Z,3028
2016-06-10T12:34:02.403Z,2988
2016-06-10T12:35:02.578Z,2960
2016-06-10T12:36:02.472Z,2920
2016-06-10T12:37:02.397Z,2912
2016-06-10T12:38:02.353Z,2924
2016-06-10T12:39:02.544Z,2920
2016-06-10T12:40:02.484Z,2888
2016-06-10T12:41:02.252Z,2872
2016-06-10T12:42:02.396Z,2832
2016-06-10T12:43:05.353Z,2820
2016-06-10T12:44:02.137Z,2796
2016-06-10T12:45:01.765Z,2892
2016-06-10T12:46:05.018Z,2960
2016-06-10T12:47:04.881Z,2984
2016-06-10T12:48:02.149Z,3000
2016-06-10T12:49:01.965Z,3032
2016-06-10T12:50:04.905Z,3040
2016-06-10T12:51:01.925Z,3036
2016-06-10T12:52:01.911Z,3000
2016-06-10T12:53:01.759Z,3032
2016-06-10T12:54:01.761Z,3028
2016-06-10T12:55:01.639Z,3028
2016-06-10T12:56:01.595Z,3040
2016-06-10T12:57:01.396Z,3036
2016-06-10T12:58:02.290Z,3040
2016-06-10T12:59:01.636Z,2924
2016-06-10T13:00:01.296Z,2924
2016-06-10T13:01:01.766Z,3016
2016-06-10T13:02:01.192Z,3036
2016-06-10T13:03:01.320Z,3064
2016-06-10T13:04:01.886Z,3184
2016-06-10T13:05:04.264Z,3216
2016-06-10T13:06:01.032Z,3264
2016-06-10T13:07:01.130Z,3304
2016-06-10T13:08:04.132Z,3328
2016-06-10T13:09:01.058Z,3364
2016-06-10T13:10:00.982Z,3372
2016-06-10T13:11:00.969Z,3448
2016-06-10T13:12:01.348Z,3444
2016-06-10T13:13:03.991Z,3436
2016-06-10T13:14:00.854Z,3440
2016-06-10T13:15:07.201Z,3508
2016-06-10T13:16:03.595Z,3524
2016-06-10T13:17:01.816Z,3572
2016-06-10T13:18:06.898Z,3664
2016-06-10T13:19:00.651Z,3672
2016-06-10T13:20:00.607Z,3656
2016-06-10T13:21:00.594Z,3612
2016-06-10T13:22:00.489Z,3588
2016-06-10T13:23:00.617Z,3600
2016-06-10T13:24:00.463Z,3576
2016-06-10T13:25:00.591Z,3604
2016-06-10T13:26:00.376Z,3620
2016-06-10T13:27:00.738Z,3656
2016-06-10T13:28:00.788Z,3724
2016-06-10T13:29:00.650Z,3764
2016-06-10T13:30:03.356Z,3848
2016-06-10T13:31:00.578Z,3916
2016-06-10T13:32:03.269Z,4056
2016-06-10T13:33:06.116Z,4152
2016-06-10T13:33:59.994Z,4244
2016-06-10T13:34:59.935Z,4352
2016-06-10T13:36:02.906Z,4492
2016-06-10T13:36:59.863Z,4556
2016-06-10T13:38:00.756Z,4652
2016-06-10T13:39:02.775Z,4800
2016-06-10T13:39:59.731Z,4904